Flight Track Log - Related Links

Times and Time Zones

All times are in EDT time to prevent confusion due to time zone crossing. See the N552XJ flight status page for this flight to view local times or setup timezone preferences in your user account.

Time Position Orientation Groundspeed Altitude Reporting Facility
EDT Latitude Longitude Course Direction KTS MPH feet Rate Location/Type
Tue 04:47:46 PM 29.5503 -95.6692 189° South 214 246 2,600  Level Houston Center
Tue 04:48:12 PM 29.5481 -95.6928 264° West 211 243 3,400 3,353 Climbing Houston Center
Tue 04:48:54 PM 29.5708 -95.7364 301° West 221 254 6,400 4,161 Climbing Houston Center
Tue 04:49:14 PM 29.5814 -95.7489 314° West 216 249 7,700 4,131 Climbing Houston Center
Tue 04:49:55 PM 29.6139 -95.7939 310° West 234 269 10,600 3,581 Climbing Houston Center
Tue 04:50:16 PM 29.6244 -95.8069 313° West 237 273 11,400 2,892 Climbing Houston Center
Tue 04:51:18 PM 29.6803 -95.8778 312° West 297 342 14,600 3,000 Climbing Houston Center
Tue 04:52:20 PM 29.7406 -95.9575 311° West 325 374 17,600 3,097 Climbing Houston Center
Tue 04:53:22 PM 29.8161 -96.0522 313° West 360 414 21,000 3,168 Climbing Houston Center
Tue 04:54:25 PM 29.8828 -96.1400 311° West 365 420 24,200 2,496 Climbing Houston Center
Tue 04:55:27 PM 29.9172 -96.2575 289° West 399 459 26,200 2,032 Climbing Houston Center
Tue 04:56:29 PM 29.9533 -96.4114 285° West 420 483 28,400 1,935 Climbing Houston Center
Tue 04:57:31 PM 29.9844 -96.5447 285° West 433 498 30,200 1,742 Climbing Houston Center
Tue 04:58:33 PM 30.0158 -96.6817 285° West 443 510 32,000 1,742 Climbing Houston Center
Tue 04:59:35 PM 30.0472 -96.8194 285° West 446 513 33,800 1,742 Climbing Houston Center
Tue 05:00:37 PM 30.0775 -96.9558 284° West 443 510 35,600 1,887 Climbing Houston Center
Tue 05:01:39 PM 30.1136 -97.1131 285° West 435 501 37,700 1,935 Climbing Houston Center
Tue 05:02:41 PM 30.1422 -97.2450 284° West 420 483 39,600 1,790 Climbing Houston Center
Tue 05:03:43 PM 30.1706 -97.3714 285° West 405 466 41,400 1,113 Climbing Houston Center
Tue 05:04:45 PM 30.1972 -97.4933 284° West 390 449 41,900 390 Climbing Houston Center
Tue 05:05:46 PM 30.2258 -97.6225 284° West 404 465 42,200 390 Climbing Houston Center
Tue 05:06:48 PM 30.2556 -97.7525 285° West 411 473 42,700 384 Climbing Houston Center
Tue 05:07:51 PM 30.2881 -97.9017 284° West 418 481 43,000 144 Climbing Houston Center
Tue 05:08:53 PM 30.3167 -98.0333 284° West 422 486 43,000  Level Houston Center
Tue 05:09:55 PM 30.3475 -98.1767 284° West 429 494 43,000  Level Houston Center
Tue 05:10:57 PM 30.3764 -98.3133 284° West 433 498 43,000  Level Houston Center
Tue 05:11:59 PM 30.4061 -98.4511 284° West 435 501 43,000  Level Houston Center
Tue 05:13:01 PM 30.4350 -98.5878 284° West 433 498 43,000  Level Houston Center
Tue 05:14:03 PM 30.4644 -98.7244 284° West 431 496 43,000  Level Houston Center
Tue 05:15:05 PM 30.4928 -98.8611 284° West 432 497 43,000  Level Houston Center
Tue 05:16:07 PM 30.5228 -98.9989 284° West 435 501 43,000  Level Houston Center
Tue 05:17:09 PM 30.5539 -99.1467 284° West 434 499 43,000  Level Houston Center
Tue 05:18:11 PM 30.5819 -99.2819 284° West 433 498 43,000  Level Houston Center
Tue 05:19:13 PM 30.6100 -99.4161 284° West 431 496 43,000  Level Houston Center
Tue 05:20:15 PM 30.6378 -99.5517 283° West 435 501 43,000  Level Houston Center
Tue 05:21:17 PM 30.6700 -99.7117 283° West 428 493 43,000  Level Houston Center
Tue 05:22:19 PM 30.6969 -99.8464 283° West 430 495 43,000  Level Houston Center
Tue 05:23:21 PM 30.7236 -99.9803 283° West 437 503 43,000  Level Houston Center
Tue 05:24:23 PM 30.7508 -100.1153 283° West 435 501 43,000  Level Houston Center
Tue 05:25:25 PM 30.7764 -100.2506 282° West 433 498 43,000  Level Houston Center
Tue 05:26:28 PM 30.8097 -100.4122 284° West 430 495 43,000  Level Houston Center
Tue 05:27:30 PM 30.8361 -100.5483 283° West 433 498 43,000  Level Houston Center
Tue 05:28:32 PM 30.8614 -100.6867 282° West 438 504 43,000  Level Houston Center
Tue 05:29:34 PM 30.8881 -100.8192 283° West 428 493 43,000 -48 Level Houston Center
Tue 05:30:36 PM 30.9156 -100.9561 283° West 433 498 42,900  Descending Houston Center
Tue 05:31:38 PM 30.9461 -101.1233 282° West 442 509 43,000 48 Climbing Houston Center
Tue 05:32:40 PM 30.9742 -101.2539 284° West 424 488 43,000  Level Houston Center
Tue 05:33:42 PM 30.9950 -101.3789 281° West 429 494 43,000  Level Houston Center
Tue 05:34:12 PM 31.0106 -101.4608 283° West 433 498 43,000  Level Albuquerque Center
Tue 05:35:14 PM 31.0369 -101.5967 283° West 432 497 43,000  Level Albuquerque Center
Tue 05:36:16 PM 31.0614 -101.7331 282° West 430 495 43,000  Level Albuquerque Center
Tue 05:37:18 PM 31.0867 -101.8703 282° West 433 498 43,000  Level Albuquerque Center
Tue 05:38:20 PM 31.1142 -102.0325 281° West 435 501 43,000  Level Albuquerque Center
Tue 05:39:22 PM 31.1403 -102.1694 283° West 437 503 43,000  Level Albuquerque Center
Tue 05:40:24 PM 31.1650 -102.3083 282° West 437 503 43,000  Level Albuquerque Center
Tue 05:41:26 PM 31.1897 -102.4464 282° West 436 502 43,000  Level Albuquerque Center
Tue 05:42:28 PM 31.2153 -102.5953 281° West 430 495 43,000  Level Albuquerque Center
Tue 05:43:29 PM 31.2408 -102.7331 282° West 432 497 43,000  Level Albuquerque Center
Tue 05:44:31 PM 31.2653 -102.8733 282° West 437 503 43,000  Level Albuquerque Center
Tue 05:45:33 PM 31.2889 -103.0114 281° West 435 501 43,000  Level Albuquerque Center
Tue 05:46:35 PM 31.3136 -103.1503 282° West 437 503 43,000  Level Albuquerque Center
Tue 05:47:37 PM 31.3417 -103.3183 281° West 438 504 43,000  Level Albuquerque Center
Tue 05:48:39 PM 31.3658 -103.4575 282° West 438 504 43,000  Level Albuquerque Center
Tue 05:49:41 PM 31.3886 -103.5964 281° West 437 503 43,000  Level Albuquerque Center
Tue 05:50:43 PM 31.4125 -103.7347 281° West 435 501 43,000  Level Albuquerque Center
Tue 05:51:45 PM 31.4389 -103.8825 282° West 437 503 43,000  Level Albuquerque Center
Tue 05:52:47 PM 31.4617 -104.0203 281° West 435 501 43,000  Level Albuquerque Center
Tue 05:53:48 PM 31.4850 -104.1578 281° West 433 498 43,000  Level Albuquerque Center
Tue 05:54:50 PM 31.5072 -104.2956 281° West 433 498 43,000  Level Albuquerque Center
Tue 05:55:52 PM 31.5336 -104.4594 281° West 431 496 43,000  Level Albuquerque Center
Tue 05:56:54 PM 31.5569 -104.5967 281° West 431 496 43,000  Level Albuquerque Center
Tue 05:57:56 PM 31.5800 -104.7347 281° West 433 498 43,000  Level Albuquerque Center
Tue 05:58:58 PM 31.6006 -104.8731 280° West 434 499 43,000  Level Albuquerque Center
Tue 06:00:01 PM 31.6233 -105.0106 281° West 433 498 43,000  Level Albuquerque Center
Tue 06:01:03 PM 31.6497 -105.1764 281° West 433 498 43,000  Level Albuquerque Center
Tue 06:02:05 PM 31.6703 -105.3142 280° West 432 497 43,000  Level Albuquerque Center
Tue 06:03:07 PM 31.6925 -105.4533 281° West 434 499 43,000  Level Albuquerque Center
Tue 06:04:09 PM 31.7125 -105.5914 280° West 432 497 43,000  Level Albuquerque Center
Tue 06:05:11 PM 31.7333 -105.7297 280° West 432 497 43,000  Level Albuquerque Center
Tue 06:06:12 PM 31.7547 -105.8672 280° West 431 496 43,000  Level Albuquerque Center
Tue 06:07:14 PM 31.7797 -106.0336 280° West 432 497 43,000  Level Albuquerque Center
Tue 06:08:16 PM 31.8011 -106.1714 280° West 431 496 43,000  Level Albuquerque Center
Tue 06:09:18 PM 31.8231 -106.3111 281° West 435 501 43,000  Level Albuquerque Center
Tue 06:10:20 PM 31.8433 -106.4503 280° West 435 501 43,000  Level Albuquerque Center
Tue 06:11:22 PM 31.8622 -106.5858 279° West 436 502 43,000  Level Albuquerque Center
Tue 06:12:24 PM 31.8875 -106.7525 280° West 431 496 43,000  Level Albuquerque Center
Tue 06:13:26 PM 31.9081 -106.8925 280° West 432 497 43,000  Level Albuquerque Center
Tue 06:14:28 PM 31.9278 -107.0328 279° West 433 498 43,000  Level Albuquerque Center
Tue 06:15:30 PM 31.9467 -107.1739 279° West 434 499 43,000  Level Albuquerque Center
Tue 06:16:32 PM 31.9664 -107.3125 280° West 430 495 43,000  Level Albuquerque Center
Tue 06:17:33 PM 31.9856 -107.4547 279° West 433 498 43,000  Level Albuquerque Center
Tue 06:18:35 PM 32.0047 -107.5928 279° West 430 495 43,000  Level Albuquerque Center
Tue 06:19:37 PM 32.0225 -107.7303 279° West 426 490 43,000  Level Albuquerque Center
Tue 06:20:39 PM 32.0467 -107.8997 280° West 432 497 43,000  Level Albuquerque Center
Tue 06:21:41 PM 32.0653 -108.0400 279° West 432 497 43,000  Level Albuquerque Center
Tue 06:22:43 PM 32.0836 -108.1736 279° West 429 494 43,000  Level Albuquerque Center
Tue 06:23:45 PM 32.1014 -108.3119 279° West 429 494 43,000  Level Albuquerque Center
Tue 06:24:47 PM 32.1322 -108.4467 285° West 432 497 43,000  Level Albuquerque Center
Tue 06:25:49 PM 32.1817 -108.6050 290° West 433 498 43,000  Level Albuquerque Center
Tue 06:26:51 PM 32.2217 -108.7372 290° West 431 496 43,000  Level Albuquerque Center
Tue 06:27:53 PM 32.2636 -108.8692 291° West 432 497 43,000  Level Albuquerque Center
Tue 06:28:54 PM 32.3039 -109.0033 290° West 433 498 43,000  Level Albuquerque Center
Tue 06:29:56 PM 32.3442 -109.1350 290° West 431 496 43,000  Level Albuquerque Center
Tue 06:30:58 PM 32.3842 -109.2686 290° West 432 497 43,000  Level Albuquerque Center
Tue 06:32:00 PM 32.4336 -109.4303 290° West 435 501 43,000  Level Albuquerque Center
Tue 06:33:02 PM 32.4736 -109.5647 289° West 436 502 43,000  Level Albuquerque Center
Tue 06:34:04 PM 32.5139 -109.7003 289° West 438 504 43,000  Level Albuquerque Center
Tue 06:35:06 PM 32.5578 -109.8389 291° West 447 514 43,000  Level Albuquerque Center
Tue 06:36:08 PM 32.5972 -109.9742 289° West 440 506 43,000  Level Albuquerque Center
Tue 06:37:09 PM 32.6464 -110.1364 290° West 439 505 43,000  Level Albuquerque Center
Tue 06:38:11 PM 32.6861 -110.2733 289° West 440 506 43,000  Level Albuquerque Center
Tue 06:39:13 PM 32.7258 -110.4075 289° West 438 504 43,000  Level Albuquerque Center
Tue 06:40:15 PM 32.7661 -110.5431 289° West 438 504 43,000  Level Albuquerque Center
Tue 06:41:16 PM 32.8028 -110.6717 289° West 438 504 43,000  Level Albuquerque Center
Tue 06:42:18 PM 32.8506 -110.8369 289° West 440 506 43,000  Level Albuquerque Center
Tue 06:43:20 PM 32.8903 -110.9753 289° West 441 507 43,000  Level Albuquerque Center
Tue 06:44:22 PM 32.9297 -111.1100 289° West 432 497 43,000  Level Albuquerque Center
Tue 06:45:23 PM 32.9689 -111.2467 289° West 434 499 43,000  Level Albuquerque Center
Tue 06:46:25 PM 33.0078 -111.3850 289° West 439 505 43,000  Level Albuquerque Center
Tue 06:47:27 PM 33.0467 -111.5233 289° West 440 506 43,000 -341 Level Albuquerque Center
Tue 06:48:28 PM 33.0844 -111.6589 288° West 432 497 42,300 -780 Descending Albuquerque Center
Tue 06:49:30 PM 33.1292 -111.8211 288° West 430 495 41,400 -823 Descending Albuquerque Center
Tue 06:50:32 PM 33.1678 -111.9617 288° West 441 507 40,600 -683 Descending Albuquerque Center
Tue 06:51:33 PM 33.2069 -112.1061 288° West 451 519 40,000 -293 Descending Albuquerque Center
Tue 06:52:35 PM 33.2456 -112.2450 288° West 446 513 40,000  Level Albuquerque Center
Tue 06:53:37 PM 33.2822 -112.3822 288° West 436 502 40,000  Level Albuquerque Center
Tue 06:54:38 PM 33.3142 -112.5281 285° West 455 524 40,000  Level Albuquerque Center
Tue 06:55:40 PM 33.2975 -112.6708 262° West 460 529 40,000  Level Albuquerque Center
Tue 06:56:41 PM 33.2522 -112.8431 253° West 459 528 40,000  Level Albuquerque Center
Tue 06:57:43 PM 33.1867 -112.9744 239° Southwest 462 532 40,000  Level Albuquerque Center
Tue 06:58:45 PM 33.1192 -113.1039 238° Southwest 463 533 40,000  Level Albuquerque Center
Tue 06:59:46 PM 33.0522 -113.2344 239° Southwest 465 535 40,000  Level Albuquerque Center
Tue 07:00:48 PM 32.9844 -113.3653 238° Southwest 467 537 40,000 -49 Level Albuquerque Center
Tue 07:01:49 PM 32.9167 -113.4969 239° Southwest 468 539 39,900  Descending Albuquerque Center
Tue 07:02:51 PM 32.8367 -113.6564 239° Southwest 470 541 40,000 48 Climbing Albuquerque Center
Tue 07:03:53 PM 32.8133 -113.8072 260° West 470 541 40,000  Level Albuquerque Center
Tue 07:04:54 PM 32.8086 -113.9611 268° West 466 536 40,000 -49 Level Albuquerque Center
Tue 07:05:56 PM 32.8042 -114.1136 268° West 466 536 39,900 -57 Descending Albuquerque Center
Tue 07:06:40 PM 32.8006 -114.2156 268° West 465 535 39,900 -113 Level Los Angeles Center
Tue 07:07:42 PM 32.7944 -114.3989 268° West 463 533 39,700 -484 Descending Los Angeles Center
Tue 07:08:44 PM 32.7869 -114.5478 267° West 453 521 38,900 -774 Descending Los Angeles Center
Tue 07:09:46 PM 32.7833 -114.6961 268° West 450 518 38,100 -774 Descending Los Angeles Center
Tue 07:10:48 PM 32.7767 -114.8481 267° West 460 529 37,300 -871 Descending Los Angeles Center
Tue 07:11:50 PM 32.7714 -115.0028 268° West 468 539 36,300 -919 Descending Los Angeles Center
Tue 07:12:52 PM 32.7642 -115.1594 267° West 474 545 35,400 -1,016 Descending Los Angeles Center
Tue 07:13:54 PM 32.7556 -115.3500 267° West 482 555 34,200 -1,065 Descending Los Angeles Center
Tue 07:14:56 PM 32.7875 -115.5031 284° West 481 554 33,200 -1,161 Descending Los Angeles Center
Tue 07:15:58 PM 32.8369 -115.6481 292° West 475 547 31,800 -1,887 Descending Los Angeles Center
Tue 07:17:00 PM 32.8831 -115.7911 291° West 465 535 29,300 -2,855 Descending Los Angeles Center
Tue 07:18:02 PM 32.9278 -115.9253 292° West 442 509 25,900 -3,194 Descending Los Angeles Center
Tue 07:19:04 PM 32.9711 -116.0561 292° West 431 496 22,700 -3,366 Descending Los Angeles Center
Tue 07:20:05 PM 33.0208 -116.2094 291° West 417 480 19,000 -3,073 Descending Los Angeles Center
Tue 07:21:07 PM 33.0567 -116.3331 289° West 381 438 16,400 -2,516 Descending Los Angeles Center
Tue 07:22:09 PM 33.0556 -116.4597 269° West 381 438 13,800 -1,984 Descending Los Angeles Center
Tue 07:23:11 PM 33.0994 -116.5467 301° West 349 402 12,300 -1,210 Descending Los Angeles Center
Tue 07:24:13 PM 33.1492 -116.6550 299° West 325 374 11,300 -1,403 Descending Los Angeles Center
Tue 07:25:15 PM 33.1506 -116.7475 271° West 290 334 9,400 -1,452 Descending Los Angeles Center
Tue 07:26:17 PM 33.1531 -116.8383 272° West 279 321 8,300 -968 Descending Los Angeles Center
Tue 07:27:19 PM 33.1550 -116.9072 272° West 218 251 7,400 -1,111 Descending Los Angeles Center
Tue 07:27:38 PM 33.1500 -116.9333 257° West 205 236 6,800 -1,694 Descending Southern California TRACON
Tue 07:28:44 PM 33.1500 -117.0167 270° West 205 236 5,000 -1,571 Descending Southern California TRACON
Tue 07:29:44 PM 33.1667 -117.0833 287° West 210 242 3,500 -1,250 Descending Southern California TRACON
Tue 07:30:44 PM 33.1500 -117.1500 253° West 179 206 2,500 -900 Descending Southern California TRACON
Tue 07:31:44 PM 33.1500 -117.2000 270° West 156 180 1,700 -750 Descending Southern California TRACON
Tue 07:32:44 PM 33.1333 -117.2333 239° Southwest 128 147 1,000 -700 Descending Southern California TRACON
Tue 07:35:00 PM 33.1283 -117.2801 270° West  Level Estimated
Tue 07:42:00 PM 33.1283 -117.2801 132° Southeast  Level Estimated

Login

Don't have an account? Register now (free) for customized features, flight alerts, and more!